sensor_id;sensor_type;location;lat;lon;timestamp;pressure;altitude;pressure_sealevel;temperature;humidity
47710;BME280;33473;51.640;5.892;2023-04-21T00:12:34;101400;;;14.2;52.0
47710;BME280;33473;51.640;5.892;2023-04-21T00:25:54;101400;;;14.2;52.0
47710;BME280;33473;51.640;5.892;2023-04-21T00:39:13;101400;;;14.2;52.0
47710;BME280;33473;51.640;5.892;2023-04-21T00:52:33;101400;;;14.2;52.0
47710;BME280;33473;51.640;5.892;2023-04-21T01:05:53;101300;;;14.2;52.0
47710;BME280;33473;51.640;5.892;2023-04-21T01:19:12;101300;;;14.2;52.0
47710;BME280;33473;51.640;5.892;2023-04-21T01:32:32;101300;;;14.3;52.0
47710;BME280;33473;51.640;5.892;2023-04-21T01:45:52;101300;;;14.3;52.0
47710;BME280;33473;51.640;5.892;2023-04-21T01:59:11;101300;;;14.1;53.0
47710;BME280;33473;51.640;5.892;2023-04-21T02:12:31;101300;;;14.1;53.0
47710;BME280;33473;51.640;5.892;2023-04-21T02:25:51;101300;;;14.1;53.0
47710;BME280;33473;51.640;5.892;2023-04-21T02:39:10;101300;;;14.1;54.0
47710;BME280;33473;51.640;5.892;2023-04-21T02:52:30;101300;;;14.1;54.0
47710;BME280;33473;51.640;5.892;2023-04-21T03:05:50;101300;;;14.1;54.0
47710;BME280;33473;51.640;5.892;2023-04-21T03:19:10;101300;;;14.2;54.0
47710;BME280;33473;51.640;5.892;2023-04-21T03:32:29;101200;;;14.1;54.0
47710;BME280;33473;51.640;5.892;2023-04-21T03:45:49;101200;;;14.0;53.0
47710;BME280;33473;51.640;5.892;2023-04-21T03:59:09;101200;;;13.8;53.0
47710;BME280;33473;51.640;5.892;2023-04-21T04:12:28;101200;;;13.7;53.0
47710;BME280;33473;51.640;5.892;2023-04-21T04:25:48;101300;;;13.6;54.0
47710;BME280;33473;51.640;5.892;2023-04-21T04:39:08;101200;;;13.5;54.0
47710;BME280;33473;51.640;5.892;2023-04-21T04:52:27;101200;;;13.6;54.0
47710;BME280;33473;51.640;5.892;2023-04-21T05:05:47;101300;;;13.7;55.0
47710;BME280;33473;51.640;5.892;2023-04-21T05:19:07;101300;;;13.8;55.0
47710;BME280;33473;51.640;5.892;2023-04-21T05:32:26;101300;;;13.9;55.0
47710;BME280;33473;51.640;5.892;2023-04-21T05:45:46;101300;;;14.0;55.0
47710;BME280;33473;51.640;5.892;2023-04-21T05:59:06;101300;;;14.3;56.0
47710;BME280;33473;51.640;5.892;2023-04-21T06:12:25;101300;;;14.9;56.0
47710;BME280;33473;51.640;5.892;2023-04-21T06:25:45;101300;;;15.3;55.0
47710;BME280;33473;51.640;5.892;2023-04-21T06:39:05;101300;;;16.0;55.0
47710;BME280;33473;51.640;5.892;2023-04-21T06:52:24;101300;;;16.6;54.0
47710;BME280;33473;51.640;5.892;2023-04-21T07:05:44;101300;;;17.1;52.0
47710;BME280;33473;51.640;5.892;2023-04-21T07:19:04;101300;;;17.3;50.0
47710;BME280;33473;51.640;5.892;2023-04-21T07:32:23;101300;;;17.8;50.0
47710;BME280;33473;51.640;5.892;2023-04-21T07:45:43;101300;;;18.8;47.0
47710;BME280;33473;51.640;5.892;2023-04-21T07:59:03;101300;;;19.2;44.0
47710;BME280;33473;51.640;5.892;2023-04-21T08:12:23;101300;;;19.1;45.0
47710;BME280;33473;51.640;5.892;2023-04-21T08:25:42;101300;;;18.7;45.0
47710;BME280;33473;51.640;5.892;2023-04-21T08:39:02;101200;;;19.0;45.0
47710;BME280;33473;51.640;5.892;2023-04-21T08:52:22;101200;;;19.7;44.0
47710;BME280;33473;51.640;5.892;2023-04-21T09:05:41;101200;;;20.4;42.0
47710;BME280;33473;51.640;5.892;2023-04-21T09:19:01;101200;;;20.7;44.0
47710;BME280;33473;51.640;5.892;2023-04-21T09:32:21;101200;;;20.2;43.0
47710;BME280;33473;51.640;5.892;2023-04-21T09:45:40;101200;;;20.1;43.0
47710;BME280;33473;51.640;5.892;2023-04-21T09:59:00;101200;;;20.2;43.0
47710;BME280;33473;51.640;5.892;2023-04-21T10:12:20;101200;;;21.0;43.0
47710;BME280;33473;51.640;5.892;2023-04-21T10:25:39;101200;;;21.8;40.0
47710;BME280;33473;51.640;5.892;2023-04-21T10:38:59;101200;;;21.8;40.0
47710;BME280;33473;51.640;5.892;2023-04-21T10:52:19;101200;;;21.9;37.0
47710;BME280;33473;51.640;5.892;2023-04-21T11:05:38;101200;;;22.4;39.0
47710;BME280;33473;51.640;5.892;2023-04-21T11:18:58;101100;;;23.4;37.0
47710;BME280;33473;51.640;5.892;2023-04-21T11:32:18;101100;;;23.7;37.0
47710;BME280;33473;51.640;5.892;2023-04-21T11:45:37;101100;;;24.4;36.0
47710;BME280;33473;51.640;5.892;2023-04-21T11:58:57;101100;;;24.2;35.0
47710;BME280;33473;51.640;5.892;2023-04-21T12:12:17;101100;;;23.2;35.0
47710;BME280;33473;51.640;5.892;2023-04-21T12:25:36;101100;;;23.2;37.0
47710;BME280;33473;51.640;5.892;2023-04-21T12:38:56;101000;;;23.1;36.0
47710;BME280;33473;51.640;5.892;2023-04-21T12:52:16;101000;;;23.4;36.0
47710;BME280;33473;51.640;5.892;2023-04-21T13:05:35;101000;;;24.2;36.0
47710;BME280;33473;51.640;5.892;2023-04-21T13:18:55;101000;;;24.2;36.0
47710;BME280;33473;51.640;5.892;2023-04-21T13:32:15;101000;;;23.7;36.0
47710;BME280;33473;51.640;5.892;2023-04-21T13:45:34;101000;;;23.2;36.0
47710;BME280;33473;51.640;5.892;2023-04-21T13:58:54;100900;;;22.7;38.0
47710;BME280;33473;51.640;5.892;2023-04-21T14:12:14;100900;;;23.5;37.0
47710;BME280;33473;51.640;5.892;2023-04-21T14:25:33;100900;;;23.3;36.0
47710;BME280;33473;51.640;5.892;2023-04-21T14:38:53;100900;;;24.4;36.0
47710;BME280;33473;51.640;5.892;2023-04-21T14:52:12;100800;;;24.3;33.0
47710;BME280;33473;51.640;5.892;2023-04-21T15:05:32;100800;;;24.7;32.0
47710;BME280;33473;51.640;5.892;2023-04-21T15:18:52;100800;;;23.5;34.0
47710;BME280;33473;51.640;5.892;2023-04-21T15:32:11;100800;;;23.9;35.0
47710;BME280;33473;51.640;5.892;2023-04-21T15:45:31;100800;;;24.5;33.0
47710;BME280;33473;51.640;5.892;2023-04-21T15:58:51;100800;;;24.6;32.0
47710;BME280;33473;51.640;5.892;2023-04-21T16:12:10;100700;;;24.7;32.0
47710;BME280;33473;51.640;5.892;2023-04-21T16:25:30;100700;;;24.6;31.0
47710;BME280;33473;51.640;5.892;2023-04-21T16:38:50;100700;;;24.2;32.0
47710;BME280;33473;51.640;5.892;2023-04-21T16:52:10;100700;;;23.4;33.0
47710;BME280;33473;51.640;5.892;2023-04-21T17:05:29;100700;;;23.2;34.0
47710;BME280;33473;51.640;5.892;2023-04-21T17:18:49;100800;;;19.4;43.0
47710;BME280;33473;51.640;5.892;2023-04-21T17:32:09;100700;;;18.4;46.0
47710;BME280;33473;51.640;5.892;2023-04-21T17:45:28;100700;;;18.2;48.0
47710;BME280;33473;51.640;5.892;2023-04-21T17:58:48;100700;;;17.7;48.0
47710;BME280;33473;51.640;5.892;2023-04-21T18:12:08;100700;;;17.3;49.0
47710;BME280;33473;51.640;5.892;2023-04-21T18:25:27;100700;;;16.9;49.0
47710;BME280;33473;51.640;5.892;2023-04-21T18:38:47;100700;;;16.3;50.0
47710;BME280;33473;51.640;5.892;2023-04-21T18:52:07;100700;;;16.1;51.0
47710;BME280;33473;51.640;5.892;2023-04-21T19:05:26;100700;;;16.1;52.0
47710;BME280;33473;51.640;5.892;2023-04-21T19:18:46;100700;;;15.9;53.0
47710;BME280;33473;51.640;5.892;2023-04-21T19:32:06;100700;;;15.8;53.0
47710;BME280;33473;51.640;5.892;2023-04-21T19:45:25;100700;;;15.8;53.0
47710;BME280;33473;51.640;5.892;2023-04-21T19:58:45;100800;;;15.9;54.0
47710;BME280;33473;51.640;5.892;2023-04-21T20:12:05;100800;;;15.9;54.0
47710;BME280;33473;51.640;5.892;2023-04-21T20:25:24;100800;;;16.0;54.0
47710;BME280;33473;51.640;5.892;2023-04-21T20:38:44;100800;;;16.3;54.0
47710;BME280;33473;51.640;5.892;2023-04-21T20:52:04;100800;;;16.3;54.0
47710;BME280;33473;51.640;5.892;2023-04-21T21:05:24;100800;;;16.2;54.0
47710;BME280;33473;51.640;5.892;2023-04-21T21:18:43;100800;;;16.2;54.0
47710;BME280;33473;51.640;5.892;2023-04-21T21:32:03;100800;;;16.0;53.0
47710;BME280;33473;51.640;5.892;2023-04-21T21:45:23;100700;;;15.4;54.0
47710;BME280;33473;51.640;5.892;2023-04-21T21:58:42;100700;;;15.4;52.0
47710;BME280;33473;51.640;5.892;2023-04-21T22:12:02;100700;;;15.1;51.0
